createdAt,value
2022-11-28T00:01:31.225Z,101754.31
2022-11-28T00:03:59.148Z,101765.84
2022-11-28T00:06:27.908Z,101763.47
2022-11-28T00:08:57.898Z,101767.28
2022-11-28T00:11:27.965Z,101769.25
2022-11-28T00:13:56.073Z,101761.66
2022-11-28T00:16:24.565Z,101758.09
2022-11-28T00:18:54.308Z,101764.78
2022-11-28T00:21:22.620Z,101760.97
2022-11-28T00:23:51.100Z,101763.13
2022-11-28T00:26:22.029Z,101757.69
2022-11-28T00:28:49.663Z,101758.56
2022-11-28T00:31:23.603Z,101764.53
2022-11-28T00:33:51.513Z,101758.97
2022-11-28T00:36:19.711Z,101756.06
2022-11-28T00:38:47.842Z,101757.53
2022-11-28T00:41:18.538Z,101760.59
2022-11-28T00:43:47.523Z,101765.31
2022-11-28T00:46:16.440Z,101762.28
2022-11-28T00:48:44.559Z,101750.47
2022-11-28T00:51:24.526Z,101749.56
2022-11-28T00:53:53.718Z,101758.75
2022-11-28T00:56:27.679Z,101761.97
2022-11-28T00:58:56.222Z,101771.72
2022-11-28T01:01:44.530Z,101758.22
2022-11-28T01:04:15.601Z,101757.75
2022-11-28T01:06:47.398Z,101775.91
2022-11-28T01:09:21.501Z,101760.78
2022-11-28T01:11:51.353Z,101761.16
2022-11-28T01:14:21.531Z,101766.53
2022-11-28T01:16:49.499Z,101767.22
2022-11-28T01:19:17.641Z,101760.19
2022-11-28T01:21:45.412Z,101768.13
2022-11-28T01:24:14.271Z,101761.63
2022-11-28T01:26:42.788Z,101772.63
2022-11-28T01:29:10.761Z,101765.22
2022-11-28T01:31:39.135Z,101756.25
2022-11-28T01:34:07.678Z,101756.59
2022-11-28T01:36:35.247Z,101759.44
2022-11-28T01:39:02.844Z,101762.91
2022-11-28T01:41:30.577Z,101771.91
2022-11-28T01:44:07.564Z,101763.13
2022-11-28T01:46:36.785Z,101767.47
2022-11-28T01:49:22.668Z,101773.63
2022-11-28T01:51:55.805Z,101767.88
2022-11-28T01:54:28.200Z,101757.06
2022-11-28T01:57:00.589Z,101754.91
2022-11-28T01:59:34.037Z,101773.25
2022-11-28T02:02:05.463Z,101771.44
2022-11-28T02:04:34.415Z,101763.19
2022-11-28T02:07:02.018Z,101759.94
2022-11-28T02:09:29.584Z,101775.03
2022-11-28T02:12:33.492Z,101771.28
2022-11-28T02:15:23.711Z,101774.69
2022-11-28T02:18:28.606Z,101783.13
2022-11-28T02:21:34.970Z,101787.63
2022-11-28T02:24:53.618Z,101779.56
2022-11-28T02:27:30.119Z,101788.75
2022-11-28T02:30:21.402Z,101795.41
2022-11-28T02:33:03.896Z,101805.13
2022-11-28T02:35:43.830Z,101805.50
2022-11-28T02:38:29.312Z,101812.69
2022-11-28T02:41:11.538Z,101803.31
2022-11-28T02:43:47.982Z,101805.84
2022-11-28T02:46:25.835Z,101808.19
2022-11-28T02:48:59.351Z,101813.94
2022-11-28T02:51:32.846Z,101807.44
2022-11-28T02:54:02.798Z,101814.84
2022-11-28T02:56:30.491Z,101815.56
2022-11-28T02:58:57.929Z,101812.50
2022-11-28T03:01:33.216Z,101806.03
2022-11-28T03:04:16.273Z,101813.56
2022-11-28T03:07:07.595Z,101822.56
2022-11-28T03:10:09.523Z,101819.50
2022-11-28T03:12:55.364Z,101817.53
2022-11-28T03:15:32.229Z,101823.47
2022-11-28T03:18:07.762Z,101833.94
2022-11-28T03:20:40.868Z,101817.72
2022-11-28T03:23:19.568Z,101827.97
2022-11-28T03:26:05.719Z,101822.56
2022-11-28T03:28:45.559Z,101833.34
2022-11-28T03:31:21.687Z,101840.56
2022-11-28T03:33:55.299Z,101833.72
2022-11-28T03:37:03.378Z,101830.31
2022-11-28T03:39:35.911Z,101833.34
2022-11-28T03:42:10.614Z,101828.47
2022-11-28T03:44:54.592Z,101835.72
2022-11-28T03:47:28.419Z,101836.63
2022-11-28T03:50:00.726Z,101841.63
2022-11-28T03:52:33.015Z,101832.63
2022-11-28T03:55:16.588Z,101844.16
2022-11-28T03:57:59.315Z,101843.44
2022-11-28T04:00:27.254Z,101848.47
2022-11-28T04:03:25.834Z,101840.56
2022-11-28T04:05:53.211Z,101856.59
2022-11-28T04:08:28.381Z,101850.66
2022-11-28T04:11:12.870Z,101853.53
2022-11-28T04:13:54.834Z,101864.16
2022-11-28T04:16:22.314Z,101864.31
2022-11-28T04:19:02.359Z,101852.28
2022-11-28T04:21:38.002Z,101854.22
2022-11-28T04:24:14.610Z,101849.19
2022-11-28T04:26:47.932Z,101849.34
2022-11-28T04:29:19.866Z,101857.97
2022-11-28T04:31:49.475Z,101865.72
2022-11-28T04:34:20.527Z,101867.50
2022-11-28T04:36:50.055Z,101862.28
2022-11-28T04:39:25.400Z,101858.50
2022-11-28T04:41:56.358Z,101858.91
2022-11-28T04:44:44.301Z,101864.16
2022-11-28T04:47:12.271Z,101865.38
2022-11-28T04:49:40.240Z,101862.34
2022-11-28T04:52:49.948Z,101872.22
2022-11-28T04:55:23.659Z,101873.66
2022-11-28T04:58:03.478Z,101864.31
2022-11-28T05:00:34.885Z,101871.13
2022-11-28T05:03:03.923Z,101872.56
2022-11-28T05:05:43.650Z,101880.31
2022-11-28T05:08:11.514Z,101891.31
2022-11-28T05:10:42.026Z,101872.22
2022-11-28T05:13:10.116Z,101884.47
2022-11-28T05:15:37.795Z,101890.25
2022-11-28T05:18:05.838Z,101890.59
2022-11-28T05:20:33.738Z,101894.69
2022-11-28T05:23:01.420Z,101889.16
2022-11-28T05:25:28.968Z,101897.41
2022-11-28T05:27:56.408Z,101895.63
2022-11-28T05:30:24.021Z,101894.00
2022-11-28T05:32:51.623Z,101911.81
2022-11-28T05:35:19.223Z,101913.84
2022-11-28T05:37:46.717Z,101906.78
2022-11-28T05:40:14.267Z,101912.38
2022-11-28T05:42:42.013Z,101913.63
2022-11-28T05:45:09.740Z,101924.19
2022-11-28T05:47:37.241Z,101931.59
2022-11-28T05:50:05.628Z,101926.94
2022-11-28T05:52:33.339Z,101935.75
2022-11-28T05:55:01.731Z,101923.72
2022-11-28T05:57:32.183Z,101935.22
2022-11-28T05:59:59.757Z,101928.00
2022-11-28T06:02:27.349Z,101947.41
2022-11-28T06:04:54.909Z,101941.44
2022-11-28T06:07:22.468Z,101936.94
2022-11-28T06:09:49.982Z,101938.72
2022-11-28T06:12:17.393Z,101937.66
2022-11-28T06:14:44.871Z,101940.00
2022-11-28T06:17:12.475Z,101940.19
2022-11-28T06:19:40.105Z,101931.47
2022-11-28T06:22:07.708Z,101942.84
2022-11-28T06:24:35.236Z,101949.81
2022-11-28T06:27:02.776Z,101948.91
2022-11-28T06:29:30.271Z,101945.72
2022-11-28T06:31:57.769Z,101946.25
2022-11-28T06:34:25.472Z,101951.66
2022-11-28T06:36:53.387Z,101948.94
2022-11-28T06:39:21.016Z,101947.53
2022-11-28T06:41:48.489Z,101941.59
2022-11-28T06:44:16.901Z,101955.66
2022-11-28T06:46:44.656Z,101958.22
2022-11-28T06:49:15.343Z,101951.00
2022-11-28T06:51:43.383Z,101945.78
2022-11-28T06:54:10.855Z,101955.88
2022-11-28T06:56:40.603Z,101953.69
2022-11-28T06:59:10.764Z,101947.88
2022-11-28T07:01:38.563Z,101935.63
2022-11-28T07:04:06.009Z,101952.38
2022-11-28T07:06:34.447Z,101949.13
2022-11-28T07:09:02.016Z,101956.91
2022-11-28T07:11:32.068Z,101960.28
2022-11-28T07:14:01.962Z,101959.19
2022-11-28T07:16:32.488Z,101960.69
2022-11-28T07:19:00.623Z,101961.09
2022-11-28T07:21:29.317Z,101961.28
2022-11-28T07:23:58.899Z,101961.16
2022-11-28T07:26:26.862Z,101955.97
2022-11-28T07:28:56.287Z,101955.78
2022-11-28T07:31:32.042Z,101957.41
2022-11-28T07:34:03.600Z,101955.09
2022-11-28T07:36:31.665Z,101947.53
2022-11-28T07:39:01.359Z,101963.00
2022-11-28T07:41:29.459Z,101958.88
2022-11-28T07:44:04.531Z,101959.22
2022-11-28T07:46:34.208Z,101962.81
2022-11-28T07:49:02.224Z,101972.91
2022-11-28T07:51:32.507Z,101987.84
2022-11-28T07:54:01.295Z,101978.63
2022-11-28T07:56:57.079Z,101975.31
2022-11-28T07:59:20.263Z,101979.63
2022-11-28T08:01:48.877Z,101985.03
2022-11-28T08:04:16.484Z,101981.97
2022-11-28T08:06:44.781Z,101986.63
2022-11-28T08:09:12.467Z,101981.00
2022-11-28T08:11:40.598Z,101986.25
2022-11-28T08:14:08.314Z,101986.59
2022-11-28T08:16:37.039Z,101988.50
2022-11-28T08:19:04.722Z,101988.50
2022-11-28T08:21:33.420Z,101991.56
2022-11-28T08:24:02.594Z,101996.22
2022-11-28T08:26:33.278Z,101993.72
2022-11-28T08:29:02.490Z,102001.47
2022-11-28T08:31:33.119Z,102006.63
2022-11-28T08:34:03.094Z,102004.47
2022-11-28T08:36:30.593Z,102000.16
2022-11-28T08:39:22.754Z,102002.53
2022-11-28T08:41:48.341Z,102002.34
2022-11-28T08:44:16.332Z,102015.50
2022-11-28T08:46:44.278Z,102013.56
2022-11-28T08:49:11.844Z,102020.19
2022-11-28T08:51:39.421Z,102006.50
2022-11-28T08:54:07.039Z,102024.63
2022-11-28T08:56:34.911Z,102012.00
2022-11-28T08:59:03.033Z,102012.75
2022-11-28T09:01:31.038Z,102020.94
2022-11-28T09:03:58.728Z,102021.81
2022-11-28T09:06:26.269Z,102014.66
2022-11-28T09:08:54.188Z,102004.63
2022-11-28T09:11:23.168Z,102019.22
2022-11-28T09:13:51.252Z,102024.06
2022-11-28T09:16:19.039Z,102019.69
2022-11-28T09:18:46.618Z,102023.66
2022-11-28T09:21:15.441Z,102014.88
2022-11-28T09:23:44.681Z,102016.88
2022-11-28T09:26:18.388Z,102023.75
2022-11-28T09:28:46.329Z,102008.94
2022-11-28T09:31:15.541Z,102014.53
2022-11-28T09:33:43.888Z,102019.56
2022-11-28T09:36:14.661Z,102026.75
2022-11-28T09:38:44.654Z,102024.63
2022-11-28T09:41:39.001Z,102017.06
2022-11-28T09:44:31.701Z,102016.34
2022-11-28T09:47:04.407Z,102023.19
2022-11-28T09:49:41.513Z,102023.53
2022-11-28T09:52:44.184Z,102011.44
2022-11-28T09:55:40.460Z,102021.53
2022-11-28T09:58:16.351Z,102020.50
2022-11-28T10:01:18.294Z,102023.75
2022-11-28T10:03:52.419Z,102026.28
2022-11-28T10:06:45.291Z,102024.84
2022-11-28T10:09:25.173Z,102019.25
2022-11-28T10:12:08.222Z,102019.22
2022-11-28T10:15:05.920Z,102021.91
2022-11-28T10:17:54.259Z,102017.59
2022-11-28T10:20:29.035Z,102019.88
2022-11-28T10:23:05.093Z,102016.06
2022-11-28T10:25:40.775Z,102011.97
2022-11-28T10:28:16.838Z,102016.84
2022-11-28T10:30:52.672Z,102005.88
2022-11-28T10:33:29.156Z,102011.28
2022-11-28T10:35:59.971Z,102011.28
2022-11-28T10:38:31.895Z,102016.00
2022-11-28T10:41:21.951Z,102014.16
2022-11-28T10:44:00.651Z,102012.56
2022-11-28T10:46:51.466Z,102010.78
2022-11-28T10:49:37.579Z,102010.59
2022-11-28T10:52:19.924Z,102013.66
2022-11-28T10:55:20.817Z,102005.19
2022-11-28T10:57:58.644Z,102014.56
2022-11-28T11:00:26.267Z,102011.16
2022-11-28T11:02:56.003Z,101999.78
2022-11-28T11:05:27.707Z,102014.75
2022-11-28T11:08:02.608Z,102012.09
2022-11-28T11:10:37.012Z,102018.31
2022-11-28T11:13:26.327Z,102016.59
2022-11-28T11:16:14.044Z,102039.59
2022-11-28T11:18:44.262Z,102030.16
2022-11-28T11:21:29.723Z,102033.59
2022-11-28T11:24:17.077Z,102020.88
2022-11-28T11:26:47.380Z,102020.69
2022-11-28T11:29:36.950Z,102030.47
2022-11-28T11:32:06.693Z,102026.84
2022-11-28T11:34:44.256Z,102022.00
2022-11-28T11:37:31.049Z,102019.84
2022-11-28T11:40:00.641Z,102022.38
2022-11-28T11:42:35.633Z,102032.63
2022-11-28T11:45:28.351Z,102032.06
2022-11-28T11:47:56.623Z,102039.03
2022-11-28T11:50:28.556Z,102040.25
2022-11-28T11:53:12.463Z,102027.09
2022-11-28T11:56:03.484Z,102041.41
2022-11-28T11:58:54.609Z,102044.25
2022-11-28T12:01:23.524Z,102043.22
2022-11-28T12:04:23.759Z,102047.59
2022-11-28T12:06:58.613Z,102053.34
2022-11-28T12:09:36.324Z,102054.38
2022-11-28T12:12:24.056Z,102043.22
2022-11-28T12:14:52.786Z,102044.59
2022-11-28T12:17:47.883Z,102053.06
2022-11-28T12:20:27.626Z,102048.38
2022-11-28T12:22:57.998Z,102047.50
2022-11-28T12:25:41.887Z,102043.03
2022-11-28T12:28:37.058Z,102052.44
2022-11-28T12:31:41.628Z,102046.16
2022-11-28T12:34:24.254Z,102045.66
2022-11-28T12:37:14.834Z,102052.41
2022-11-28T12:39:57.257Z,102057.91
2022-11-28T12:43:07.263Z,102050.75
2022-11-28T12:45:56.247Z,102061.03
2022-11-28T12:48:23.783Z,102056.16
2022-11-28T12:51:17.777Z,102055.09
2022-11-28T12:53:45.264Z,102060.69
2022-11-28T12:56:12.643Z,102068.59
2022-11-28T12:58:57.942Z,102070.59
2022-11-28T13:01:41.336Z,102072.75
2022-11-28T13:04:36.699Z,102072.00
2022-11-28T13:07:16.213Z,102074.31
2022-11-28T13:09:59.048Z,102084.34
2022-11-28T13:12:46.317Z,102072.53
2022-11-28T13:15:19.050Z,102075.16
2022-11-28T13:17:56.038Z,102077.13
2022-11-28T13:20:43.037Z,102076.31
2022-11-28T13:23:24.151Z,102070.16
2022-11-28T13:26:00.815Z,102071.31
2022-11-28T13:28:43.091Z,102074.38
2022-11-28T13:31:29.154Z,102077.44
2022-11-28T13:33:57.661Z,102073.00
2022-11-28T13:39:59.686Z,102081.53
2022-11-28T13:45:32.441Z,102073.97
2022-11-28T13:49:13.335Z,102086.03
2022-11-28T13:51:32.072Z,102093.38
2022-11-28T13:54:19.273Z,102079.72
2022-11-28T13:57:03.958Z,102099.78
2022-11-28T13:59:33.169Z,102092.16
2022-11-28T14:02:03.536Z,102097.19
2022-11-28T14:04:32.864Z,102092.94
2022-11-28T14:07:07.426Z,102104.09
2022-11-28T14:09:55.584Z,102107.63
2022-11-28T14:12:34.255Z,102113.00
2022-11-28T14:15:47.624Z,102113.47
2022-11-28T14:18:47.709Z,102117.69
2022-11-28T14:21:19.278Z,102119.53
2022-11-28T14:24:04.330Z,102125.56
2022-11-28T14:26:37.062Z,102127.56
2022-11-28T14:29:18.409Z,102116.28
2022-11-28T14:32:13.803Z,102120.13
2022-11-28T14:34:49.773Z,102114.50
2022-11-28T14:37:20.948Z,102123.63
2022-11-28T14:39:51.013Z,102110.50
2022-11-28T14:45:43.837Z,102124.78
2022-11-28T14:48:19.167Z,102132.97
2022-11-28T14:51:00.645Z,102114.09
2022-11-28T14:53:44.730Z,102115.97
2022-11-28T14:56:15.528Z,102113.06
2022-11-28T14:58:48.547Z,102108.44
2022-11-28T15:01:38.576Z,102114.75
2022-11-28T15:04:34.006Z,102110.94
2022-11-28T15:07:04.363Z,102117.69
2022-11-28T15:09:57.425Z,102114.47
2022-11-28T15:12:52.044Z,102092.38
2022-11-28T15:15:20.738Z,102100.94
2022-11-28T15:17:52.755Z,102107.91
2022-11-28T15:20:34.998Z,102098.53
2022-11-28T15:23:03.243Z,102100.81
2022-11-28T15:25:37.322Z,102104.94
2022-11-28T15:28:15.348Z,102103.38
2022-11-28T15:30:50.217Z,102109.91
2022-11-28T15:33:18.898Z,102105.59
2022-11-28T15:36:10.779Z,102115.91
2022-11-28T15:38:41.910Z,102120.94
2022-11-28T15:41:10.002Z,102131.19
2022-11-28T15:43:42.301Z,102124.72
2022-11-28T15:46:20.878Z,102132.03
2022-11-28T15:48:52.791Z,102129.31
2022-11-28T15:51:33.023Z,102116.75
2022-11-28T15:54:03.470Z,102117.16
2022-11-28T15:56:31.206Z,102116.47
2022-11-28T15:58:58.819Z,102126.22
2022-11-28T16:01:30.303Z,102120.16
2022-11-28T16:04:07.817Z,102120.88
2022-11-28T16:06:38.390Z,102123.38
2022-11-28T16:09:12.327Z,102119.75
2022-11-28T16:11:45.058Z,102115.44
2022-11-28T16:14:19.254Z,102118.78
2022-11-28T16:16:47.175Z,102113.25
2022-11-28T16:19:22.982Z,102124.88
2022-11-28T16:21:55.361Z,102117.63
2022-11-28T16:24:46.807Z,102130.34
2022-11-28T16:27:33.602Z,102121.84
2022-11-28T16:30:03.377Z,102117.44
2022-11-28T16:32:39.948Z,102111.63
2022-11-28T16:35:12.509Z,102122.72
2022-11-28T16:37:40.277Z,102120.03
2022-11-28T16:40:17.183Z,102114.28
2022-11-28T16:42:53.386Z,102125.31
2022-11-28T16:45:33.399Z,102119.38
2022-11-28T16:48:19.374Z,102121.34
2022-11-28T16:51:21.984Z,102129.69
2022-11-28T16:53:51.783Z,102121.91
2022-11-28T16:56:31.618Z,102126.53
2022-11-28T16:59:12.099Z,102128.13
2022-11-28T17:01:41.482Z,102123.25
2022-11-28T17:04:30.175Z,102125.44
2022-11-28T17:07:05.199Z,102136.88
2022-11-28T17:09:34.059Z,102128.03
2022-11-28T17:12:23.738Z,102146.25
2022-11-28T17:14:51.366Z,102138.69
2022-11-28T17:17:20.965Z,102140.97
2022-11-28T17:19:48.931Z,102130.00
2022-11-28T17:22:22.246Z,102150.13
2022-11-28T17:24:51.690Z,102126.53
2022-11-28T17:27:19.385Z,102142.97
2022-11-28T17:29:47.053Z,102137.19
2022-11-28T17:32:14.839Z,102139.34
2022-11-28T17:34:42.886Z,102144.09
2022-11-28T17:37:10.833Z,102154.88
2022-11-28T17:39:38.988Z,102144.63
2022-11-28T17:42:06.576Z,102145.28
2022-11-28T17:44:36.429Z,102151.75
2022-11-28T17:47:05.139Z,102153.38
2022-11-28T17:49:35.746Z,102156.06
2022-11-28T17:52:03.739Z,102160.44
2022-11-28T17:54:31.246Z,102150.91
2022-11-28T17:56:58.833Z,102159.25
2022-11-28T17:59:27.163Z,102149.38
2022-11-28T18:01:54.962Z,102141.81
2022-11-28T18:04:25.811Z,102152.41
2022-11-28T18:06:53.709Z,102162.22
2022-11-28T18:09:21.361Z,102149.81
2022-11-28T18:11:48.959Z,102157.38
2022-11-28T18:14:19.593Z,102158.63
2022-11-28T18:16:48.102Z,102156.41
2022-11-28T18:19:16.428Z,102153.91
2022-11-28T18:21:44.717Z,102146.34
2022-11-28T18:24:12.384Z,102155.75
2022-11-28T18:26:40.095Z,102145.69
2022-11-28T18:29:08.868Z,102152.53
2022-11-28T18:31:38.188Z,102150.19
2022-11-28T18:34:08.136Z,102148.81
2022-11-28T18:36:37.598Z,102151.31
2022-11-28T18:39:09.117Z,102142.81
2022-11-28T18:41:37.219Z,102154.09
2022-11-28T18:44:05.790Z,102160.88
2022-11-28T18:46:34.597Z,102162.44
2022-11-28T18:49:02.347Z,102153.88
2022-11-28T18:51:32.481Z,102159.75
2022-11-28T18:54:03.745Z,102166.38
2022-11-28T18:56:32.440Z,102150.38
2022-11-28T18:58:59.988Z,102160.78
2022-11-28T19:01:55.544Z,102162.59
2022-11-28T19:04:23.744Z,102161.16
2022-11-28T19:06:52.013Z,102152.41
2022-11-28T19:09:22.357Z,102172.09
2022-11-28T19:11:50.014Z,102172.69
2022-11-28T19:14:21.249Z,102169.47
2022-11-28T19:16:49.560Z,102162.09
2022-11-28T19:19:19.473Z,102173.00
2022-11-28T19:21:49.741Z,102162.03
2022-11-28T19:24:17.807Z,102153.94
2022-11-28T19:26:45.813Z,102168.34
2022-11-28T19:29:13.616Z,102154.16
2022-11-28T19:31:42.031Z,102165.69
2022-11-28T19:34:15.339Z,102159.19
2022-11-28T19:36:46.887Z,102166.34
2022-11-28T19:39:23.509Z,102151.78
2022-11-28T19:41:53.891Z,102161.50
2022-11-28T19:44:24.099Z,102165.81
2022-11-28T19:46:53.569Z,102162.09
2022-11-28T19:49:24.196Z,102161.50
2022-11-28T19:51:51.901Z,102167.13
2022-11-28T19:54:19.916Z,102174.34
2022-11-28T19:56:49.335Z,102177.19
2022-11-28T19:59:17.522Z,102199.31
2022-11-28T20:01:48.322Z,102169.69
2022-11-28T20:04:16.678Z,102179.31
2022-11-28T20:06:44.390Z,102187.22
2022-11-28T20:09:14.007Z,102187.47
2022-11-28T20:11:43.940Z,102184.78
2022-11-28T20:14:14.481Z,102179.19
2022-11-28T20:16:42.514Z,102181.47
2022-11-28T20:19:12.211Z,102183.16
2022-11-28T20:21:40.434Z,102185.94
2022-11-28T20:24:10.560Z,102182.75
2022-11-28T20:26:42.733Z,102187.88
2022-11-28T20:29:14.648Z,102183.06
2022-11-28T20:31:46.431Z,102189.13
2022-11-28T20:34:17.876Z,102196.38
2022-11-28T20:36:50.287Z,102193.97
2022-11-28T20:39:17.891Z,102200.63
2022-11-28T20:41:45.453Z,102205.97
2022-11-28T20:44:13.058Z,102193.38
2022-11-28T20:46:40.599Z,102214.03
2022-11-28T20:49:08.125Z,102196.16
2022-11-28T20:51:36.430Z,102204.78
2022-11-28T20:54:06.057Z,102209.56
2022-11-28T20:56:58.319Z,102211.06
2022-11-28T20:59:27.175Z,102203.22
2022-11-28T21:01:54.823Z,102201.06
2022-11-28T21:04:22.305Z,102204.28
2022-11-28T21:06:49.963Z,102211.13
2022-11-28T21:09:20.166Z,102215.44
2022-11-28T21:11:58.423Z,102208.31
2022-11-28T21:14:28.087Z,102217.44
2022-11-28T21:16:56.837Z,102206.47
2022-11-28T21:19:24.529Z,102207.59
2022-11-28T21:21:52.083Z,102229.53
2022-11-28T21:24:19.871Z,102215.97
2022-11-28T21:26:53.063Z,102219.03
2022-11-28T21:29:22.735Z,102226.69
2022-11-28T21:31:50.533Z,102225.38
2022-11-28T21:34:19.543Z,102220.78
2022-11-28T21:36:47.572Z,102224.72
2022-11-28T21:39:17.627Z,102222.78
2022-11-28T21:41:45.733Z,102220.69
2022-11-28T21:44:13.302Z,102214.28
2022-11-28T21:46:41.077Z,102213.50
2022-11-28T21:49:08.630Z,102208.81
2022-11-28T21:51:40.884Z,102214.41
2022-11-28T21:54:12.740Z,102215.66
2022-11-28T21:56:40.714Z,102228.41
2022-11-28T21:59:08.266Z,102216.53
2022-11-28T22:01:36.124Z,102224.06
2022-11-28T22:04:04.864Z,102219.06
2022-11-28T22:06:33.276Z,102209.91
2022-11-28T22:09:08.339Z,102212.16
2022-11-28T22:11:38.306Z,102217.19
2022-11-28T22:14:06.328Z,102215.88
2022-11-28T22:16:34.044Z,102216.34
2022-11-28T22:19:04.267Z,102227.91
2022-11-28T22:24:19.386Z,102215.78
2022-11-28T22:26:47.460Z,102225.97
2022-11-28T22:29:15.247Z,102218.81
2022-11-28T22:31:43.270Z,102214.88
2022-11-28T22:34:10.815Z,102214.50
2022-11-28T22:36:38.847Z,102214.53
2022-11-28T22:39:06.545Z,102221.91
2022-11-28T22:41:34.255Z,102209.31
2022-11-28T22:44:03.658Z,102221.00
2022-11-28T22:46:32.714Z,102210.53
2022-11-28T22:49:01.596Z,102214.38
2022-11-28T22:51:31.602Z,102206.81
2022-11-28T22:54:00.972Z,102207.84
2022-11-28T22:56:31.895Z,102227.13
2022-11-28T22:59:00.610Z,102220.41
2022-11-28T23:01:30.915Z,102226.50
2022-11-28T23:03:59.760Z,102224.06
2022-11-28T23:06:30.627Z,102225.00
2022-11-28T23:08:59.840Z,102222.75
2022-11-28T23:11:32.857Z,102216.66
2022-11-28T23:14:01.490Z,102220.56
2022-11-28T23:16:32.862Z,102206.47
2022-11-28T23:19:02.696Z,102213.84
2022-11-28T23:21:32.951Z,102224.75
2022-11-28T23:24:00.880Z,102232.13
2022-11-28T23:26:30.252Z,102216.22
2022-11-28T23:29:03.249Z,102226.31
2022-11-28T23:31:33.125Z,102219.06
2022-11-28T23:34:01.383Z,102222.28
2022-11-28T23:36:35.688Z,102223.72
2022-11-28T23:39:09.688Z,102222.47
2022-11-28T23:41:37.172Z,102229.72
2022-11-28T23:44:04.940Z,102223.19
2022-11-28T23:46:32.997Z,102232.06
2022-11-28T23:49:00.475Z,102227.81
2022-11-28T23:51:28.107Z,102225.41
2022-11-28T23:53:55.669Z,102236.69
2022-11-28T23:56:26.353Z,102227.41
2022-11-28T23:58:55.741Z,102226.16
